Time;durP1;ratioP1;P1;durP2;ratioP2;P2;SDS_P1;SDS_P2;PMS_P1;PMS_P2;Temp;Humidity;BMP_temperature;BMP_pressure;BME280_temperature;BME280_humidity;BME280_pressure;Samples;Min_cycle;Max_cycle;Signal;HPM_P1;HPM_P2
2021/08/04 00:01:49;;;;;;;8.87;5.83;;;12.90;99.90;;;;;;4405664;32;20173;-62
2021/08/04 00:04:16;;;;;;;6.97;5.47;;;12.90;99.90;;;;;;4405464;32;20171;-62
2021/08/04 00:06:43;;;;;;;9.60;5.53;;;12.90;99.90;;;;;;4405473;32;20209;-62
2021/08/04 00:09:13;;;;;;;7.57;5.63;;;12.80;99.90;;;;;;4405642;32;20175;-62
2021/08/04 00:11:40;;;;;;;7.33;5.23;;;12.80;99.90;;;;;;4402337;32;20237;-61
2021/08/04 00:14:07;;;;;;;6.47;5.43;;;12.80;99.90;;;;;;4400085;32;20257;-60
2021/08/04 00:16:47;;;;;;;5.87;5.17;;;12.90;99.90;;;;;;4401591;32;20338;-61
2021/08/04 00:19:19;;;;;;;5.87;5.27;;;12.80;99.90;;;;;;4395586;32;20252;-62
2021/08/04 00:21:47;;;;;;;7.70;5.13;;;12.80;99.90;;;;;;4403209;32;20267;-62
2021/08/04 00:24:24;;;;;;;6.20;4.90;;;12.80;99.90;;;;;;4394767;32;20258;-60
2021/08/04 00:26:54;;;;;;;7.17;6.27;;;12.80;99.90;;;;;;4400941;32;20203;-62
2021/08/04 00:29:21;;;;;;;6.27;5.53;;;12.80;99.90;;;;;;4405200;32;20178;-61
2021/08/04 00:31:49;;;;;;;8.23;6.37;;;12.70;99.90;;;;;;4412021;32;20207;-61
2021/08/04 00:34:16;;;;;;;6.87;5.30;;;12.70;99.90;;;;;;4407056;32;20168;-61
2021/08/04 00:36:43;;;;;;;8.50;5.93;;;12.70;99.90;;;;;;4405342;32;20596;-62
2021/08/04 00:39:09;;;;;;;7.77;5.53;;;12.60;99.90;;;;;;4405709;32;20191;-62
2021/08/04 00:41:40;;;;;;;7.97;5.77;;;12.60;99.90;;;;;;4407092;32;20153;-61
2021/08/04 00:44:08;;;;;;;7.73;5.93;;;12.60;99.90;;;;;;4405376;32;20208;-62
2021/08/04 00:46:40;;;;;;;8.47;5.93;;;12.60;99.90;;;;;;4405040;32;20156;-61
2021/08/04 00:49:08;;;;;;;7.03;5.77;;;12.60;99.90;;;;;;4406538;32;20171;-62
2021/08/04 00:51:36;;;;;;;6.30;5.17;;;12.60;99.90;;;;;;4406602;32;20173;-61
2021/08/04 00:54:04;;;;;;;8.30;6.70;;;12.60;99.90;;;;;;4406911;32;20148;-62
2021/08/04 00:56:32;;;;;;;7.40;6.00;;;12.50;99.90;;;;;;4404801;32;20168;-62
2021/08/04 00:59:00;;;;;;;8.07;5.60;;;12.60;99.90;;;;;;4405909;32;20195;-62
2021/08/04 01:01:29;;;;;;;8.33;5.70;;;12.60;99.90;;;;;;4405342;32;20175;-63
2021/08/04 01:04:00;;;;;;;7.03;5.87;;;12.60;99.90;;;;;;4406575;32;20580;-61
2021/08/04 01:06:35;;;;;;;6.37;5.40;;;12.50;99.90;;;;;;4409031;32;20182;-61
2021/08/04 01:09:03;;;;;;;8.00;6.40;;;12.50;99.90;;;;;;4408157;32;20233;-62
2021/08/04 01:11:34;;;;;;;6.93;5.97;;;12.50;99.90;;;;;;4407902;32;20154;-61
2021/08/04 01:14:05;;;;;;;9.30;6.00;;;12.40;99.90;;;;;;4407908;32;20174;-62
2021/08/04 01:16:37;;;;;;;7.17;5.50;;;12.50;99.90;;;;;;4408060;32;20207;-61
2021/08/04 01:19:13;;;;;;;7.77;6.43;;;12.40;99.90;;;;;;4407951;32;20198;-62
2021/08/04 01:21:53;;;;;;;9.27;6.33;;;12.40;99.90;;;;;;4407934;32;20210;-61
2021/08/04 01:24:26;;;;;;;7.73;6.03;;;12.40;99.90;;;;;;4407831;32;20161;-61
2021/08/04 01:26:56;;;;;;;7.83;6.00;;;12.40;99.90;;;;;;4407851;32;20160;-61
2021/08/04 01:29:25;;;;;;;9.23;6.63;;;12.40;99.90;;;;;;4408533;32;20487;-61
2021/08/04 01:31:57;;;;;;;6.67;5.37;;;12.40;99.90;;;;;;4408194;32;20151;-62
2021/08/04 01:34:25;;;;;;;8.13;5.43;;;12.40;99.90;;;;;;4407530;32;20181;-62
2021/08/04 01:36:53;;;;;;;7.77;5.50;;;12.30;99.90;;;;;;4407575;32;20178;-61
2021/08/04 01:39:21;;;;;;;7.17;5.77;;;12.30;99.90;;;;;;4407646;32;20171;-61
2021/08/04 01:41:49;;;;;;;8.27;5.07;;;12.30;99.90;;;;;;4407906;32;20579;-61
2021/08/04 01:44:19;;;;;;;10.07;5.77;;;12.30;99.90;;;;;;4408918;32;20152;-61
2021/08/04 01:46:47;;;;;;;7.50;5.30;;;12.30;99.90;;;;;;4407482;32;20616;-61
2021/08/04 01:49:14;;;;;;;7.23;4.93;;;12.30;99.90;;;;;;4407838;32;20625;-61
2021/08/04 01:51:43;;;;;;;6.53;5.20;;;12.30;99.90;;;;;;4407454;32;20147;-61
2021/08/04 01:54:10;;;;;;;8.30;6.07;;;12.30;99.90;;;;;;4407441;32;20262;-61
2021/08/04 01:56:37;;;;;;;9.83;6.37;;;12.30;99.90;;;;;;4407388;32;20167;-61
2021/08/04 01:59:04;;;;;;;10.73;6.60;;;12.30;99.90;;;;;;4407373;32;20459;-61
2021/08/04 02:01:32;;;;;;;10.20;6.37;;;12.20;99.90;;;;;;4407814;32;20599;-61
2021/08/04 02:03:59;;;;;;;10.77;6.60;;;12.20;99.90;;;;;;4408323;32;20171;-61
2021/08/04 02:06:31;;;;;;;8.47;6.03;;;12.20;99.90;;;;;;4407259;32;20151;-61
2021/08/04 02:09:02;;;;;;;8.33;6.17;;;12.30;99.90;;;;;;4407390;32;20241;-61
2021/08/04 02:11:38;;;;;;;7.10;5.57;;;12.30;99.90;;;;;;4406973;32;20163;-60
2021/08/04 02:14:09;;;;;;;8.57;5.67;;;12.30;99.90;;;;;;4407402;32;20151;-61
2021/08/04 02:16:44;;;;;;;9.53;5.93;;;12.30;99.90;;;;;;4407171;32;20498;-61
2021/08/04 02:19:15;;;;;;;7.70;5.50;;;12.30;99.90;;;;;;4406989;32;20205;-60
2021/08/04 02:21:48;;;;;;;8.13;5.37;;;12.30;99.90;;;;;;4407002;32;20166;-61
2021/08/04 02:24:18;;;;;;;10.53;5.40;;;12.20;99.90;;;;;;4407501;32;20264;-61
2021/08/04 02:26:46;;;;;;;8.67;5.57;;;12.20;99.90;;;;;;4406856;32;20178;-61
2021/08/04 02:29:15;;;;;;;7.87;5.33;;;12.20;99.90;;;;;;4406807;32;20187;-61
2021/08/04 02:31:44;;;;;;;7.30;5.73;;;12.20;99.90;;;;;;4408637;32;20495;-61
2021/08/04 02:34:10;;;;;;;8.27;6.43;;;12.30;99.90;;;;;;4406730;32;20175;-61
2021/08/04 02:36:37;;;;;;;8.77;6.07;;;12.30;99.90;;;;;;4407487;32;20182;-62
2021/08/04 02:39:04;;;;;;;7.57;5.20;;;12.30;99.90;;;;;;4407032;32;20164;-61
2021/08/04 02:41:33;;;;;;;8.03;5.80;;;12.30;99.90;;;;;;4406807;32;20188;-61
2021/08/04 02:44:00;;;;;;;8.50;5.57;;;12.40;99.90;;;;;;4406799;32;20643;-60
2021/08/04 02:46:29;;;;;;;7.40;5.60;;;12.50;99.90;;;;;;4408138;32;20171;-62
2021/08/04 02:48:58;;;;;;;9.13;5.57;;;12.50;99.90;;;;;;4406471;32;20172;-62
2021/08/04 02:51:25;;;;;;;8.87;5.37;;;12.50;99.90;;;;;;4406677;32;20502;-61
2021/08/04 02:53:56;;;;;;;9.23;5.40;;;12.60;99.90;;;;;;4406650;32;20167;-61
2021/08/04 02:56:24;;;;;;;7.70;5.47;;;12.60;99.90;;;;;;4406488;32;20606;-61
2021/08/04 02:58:51;;;;;;;8.63;6.13;;;12.60;99.90;;;;;;4408216;32;20203;-62
2021/08/04 03:01:18;;;;;;;6.40;5.77;;;12.60;99.90;;;;;;4407963;32;20151;-61
2021/08/04 03:03:45;;;;;;;7.80;5.13;;;12.70;99.90;;;;;;4406179;32;20152;-61
2021/08/04 03:06:13;;;;;;;7.47;5.67;;;12.70;99.90;;;;;;4415129;32;20179;-61
2021/08/04 03:08:40;;;;;;;6.23;5.63;;;12.80;99.90;;;;;;4406334;32;20206;-62
2021/08/04 03:11:08;;;;;;;7.23;5.63;;;12.80;99.90;;;;;;4406589;32;20166;-61
2021/08/04 03:13:34;;;;;;;9.40;5.43;;;12.80;99.90;;;;;;4406274;32;20147;-61
2021/08/04 03:16:02;;;;;;;7.57;4.50;;;12.80;99.90;;;;;;4406155;32;20164;-62
2021/08/04 03:18:29;;;;;;;6.67;5.17;;;12.80;99.90;;;;;;4406361;32;20152;-61
2021/08/04 03:20:58;;;;;;;5.93;5.10;;;12.80;99.90;;;;;;4405948;32;20471;-61
2021/08/04 03:23:27;;;;;;;8.73;6.03;;;12.80;99.90;;;;;;4407963;32;20166;-61
2021/08/04 03:25:54;;;;;;;8.77;6.27;;;12.80;99.90;;;;;;4406029;32;20169;-61
2021/08/04 03:28:21;;;;;;;7.10;5.83;;;12.80;99.90;;;;;;4406847;32;20199;-62
2021/08/04 03:30:48;;;;;;;6.93;5.57;;;12.80;99.90;;;;;;4405469;32;20227;-62
2021/08/04 03:33:14;;;;;;;6.30;5.70;;;12.80;99.90;;;;;;4407707;32;20148;-61
2021/08/04 03:35:41;;;;;;;7.50;5.70;;;12.80;99.90;;;;;;4406285;32;20226;-61
2021/08/04 03:38:08;;;;;;;6.83;5.80;;;12.70;99.90;;;;;;4406783;32;20160;-62
2021/08/04 03:40:36;;;;;;;8.93;5.70;;;12.70;99.90;;;;;;4406025;32;20149;-62
2021/08/04 03:43:03;;;;;;;7.30;6.10;;;12.60;99.90;;;;;;4405757;32;20167;-62
2021/08/04 03:45:30;;;;;;;6.40;5.60;;;12.60;99.90;;;;;;4406236;32;20186;-60
2021/08/04 03:48:00;;;;;;;8.60;5.10;;;12.50;99.90;;;;;;4405750;32;20208;-61
2021/08/04 03:50:27;;;;;;;7.13;5.97;;;12.50;99.90;;;;;;4405572;32;20540;-61
2021/08/04 03:52:54;;;;;;;6.50;5.40;;;12.50;99.90;;;;;;4405459;32;20175;-61
2021/08/04 03:55:21;;;;;;;8.57;5.20;;;12.40;99.90;;;;;;4405285;32;20576;-61
2021/08/04 03:57:50;;;;;;;8.83;6.10;;;12.50;99.90;;;;;;4406996;32;20530;-60
2021/08/04 04:00:17;;;;;;;6.87;5.63;;;12.30;99.90;;;;;;4407214;32;20167;-61
2021/08/04 04:02:43;;;;;;;5.90;5.03;;;12.30;99.90;;;;;;4405334;32;20168;-61
2021/08/04 04:05:11;;;;;;;7.43;5.73;;;12.30;99.90;;;;;;4405783;32;20175;-61
2021/08/04 04:07:39;;;;;;;7.73;5.83;;;12.30;99.90;;;;;;4405444;32;20215;-61
2021/08/04 04:10:07;;;;;;;7.30;6.17;;;12.30;99.90;;;;;;4405623;32;20216;-61
2021/08/04 04:12:36;;;;;;;7.17;5.63;;;12.30;99.90;;;;;;4405153;32;20458;-61
2021/08/04 04:15:05;;;;;;;6.40;5.57;;;12.30;99.90;;;;;;4405657;32;20144;-62
2021/08/04 04:17:32;;;;;;;10.40;5.97;;;12.30;99.90;;;;;;4405495;32;20160;-61
2021/08/04 04:19:58;;;;;;;9.87;5.77;;;12.30;99.90;;;;;;4405401;32;20207;-61
2021/08/04 04:22:25;;;;;;;10.53;5.27;;;12.30;99.90;;;;;;4406132;32;20472;-61
2021/08/04 04:24:52;;;;;;;8.90;5.53;;;12.30;99.90;;;;;;4406138;32;20168;-62
2021/08/04 04:27:19;;;;;;;7.23;5.30;;;12.30;99.90;;;;;;4405454;32;20171;-61
2021/08/04 04:29:46;;;;;;;8.13;6.37;;;12.30;99.90;;;;;;4405504;32;20219;-61
2021/08/04 04:32:14;;;;;;;7.90;6.10;;;12.30;99.90;;;;;;4405252;32;20167;-60
2021/08/04 04:34:41;;;;;;;8.27;5.40;;;12.20;99.90;;;;;;4405336;32;20188;-61
2021/08/04 04:37:08;;;;;;;6.67;5.90;;;12.30;99.90;;;;;;4406467;32;20204;-61
2021/08/04 04:39:35;;;;;;;7.97;5.60;;;12.30;99.90;;;;;;4405894;32;20664;-61
2021/08/04 04:42:01;;;;;;;7.70;5.43;;;12.40;99.90;;;;;;4410083;32;20164;-61
2021/08/04 04:44:28;;;;;;;6.50;5.53;;;12.30;99.90;;;;;;4408378;32;20168;-61
2021/08/04 04:46:55;;;;;;;10.67;6.70;;;12.40;99.90;;;;;;4408685;32;20163;-60
2021/08/04 04:49:23;;;;;;;7.30;5.43;;;12.40;99.90;;;;;;4408235;32;20219;-61
2021/08/04 04:51:50;;;;;;;10.17;6.80;;;12.50;99.90;;;;;;4408665;32;20152;-61
2021/08/04 04:54:17;;;;;;;10.40;6.90;;;12.60;99.90;;;;;;4408093;32;20195;-61
2021/08/04 04:56:44;;;;;;;10.27;6.30;;;12.60;99.90;;;;;;4407867;32;20161;-61
2021/08/04 04:59:10;;;;;;;9.80;6.70;;;12.70;99.90;;;;;;4408635;32;20213;-62
2021/08/04 05:01:37;;;;;;;8.60;6.40;;;12.80;99.90;;;;;;4408592;32;20203;-62
2021/08/04 05:04:04;;;;;;;8.57;6.33;;;12.80;99.90;;;;;;4409697;32;20178;-62
2021/08/04 05:06:32;;;;;;;9.03;6.33;;;12.90;99.90;;;;;;4408948;32;20214;-62
2021/08/04 05:08:59;;;;;;;7.73;6.70;;;13.00;99.90;;;;;;4408113;32;20181;-62
2021/08/04 05:11:26;;;;;;;10.20;6.83;;;13.10;99.90;;;;;;4409335;32;20205;-62
2021/08/04 05:13:53;;;;;;;8.00;6.20;;;13.20;99.90;;;;;;4408015;32;20164;-61
2021/08/04 05:16:20;;;;;;;9.47;6.33;;;13.40;99.90;;;;;;4408007;32;20156;-62
2021/08/04 05:18:47;;;;;;;10.77;6.90;;;13.70;99.90;;;;;;4408160;32;20174;-59
2021/08/04 05:21:13;;;;;;;6.23;5.63;;;14.60;99.90;;;;;;4407890;32;20174;-61
2021/08/04 05:23:42;;;;;;;6.20;5.30;;;16.70;99.90;;;;;;4409487;32;20179;-59
2021/08/04 05:26:08;;;;;;;7.03;4.60;;;19.70;99.90;;;;;;4408781;32;20503;-61
2021/08/04 05:28:35;;;;;;;6.10;4.37;;;22.30;99.90;;;;;;4407322;32;20281;-61
2021/08/04 05:31:02;;;;;;;4.23;3.70;;;24.50;99.20;;;;;;4408424;32;20202;-62
2021/08/04 05:33:29;;;;;;;4.83;3.90;;;26.20;96.30;;;;;;4407690;32;20190;-63
2021/08/04 05:35:56;;;;;;;4.53;3.77;;;27.50;93.50;;;;;;4407564;32;20174;-62
2021/08/04 05:38:22;;;;;;;5.17;3.50;;;28.20;90.80;;;;;;4407730;32;20147;-62
2021/08/04 05:40:51;;;;;;;3.77;3.47;;;29.00;87.60;;;;;;4408428;32;20167;-61
2021/08/04 05:43:17;;;;;;;6.20;4.30;;;28.00;83.90;;;;;;4407985;32;20576;-62
2021/08/04 05:45:44;;;;;;;4.47;4.07;;;25.50;87.50;;;;;;4408232;32;20160;-62
2021/08/04 05:48:11;;;;;;;5.53;4.10;;;23.20;92.20;;;;;;4407526;32;20171;-62
2021/08/04 05:50:38;;;;;;;5.43;3.90;;;21.40;95.90;;;;;;4406823;32;20151;-60
2021/08/04 05:53:05;;;;;;;4.60;4.10;;;20.00;99.40;;;;;;4407382;32;20500;-60
2021/08/04 05:55:33;;;;;;;6.80;5.10;;;19.00;99.90;;;;;;4409265;32;20184;-60
2021/08/04 05:58:01;;;;;;;8.23;5.30;;;18.20;99.90;;;;;;4407403;32;20203;-60
2021/08/04 06:00:28;;;;;;;5.90;5.10;;;17.50;99.90;;;;;;4407299;32;20538;-60
2021/08/04 06:02:55;;;;;;;6.93;5.37;;;17.10;99.90;;;;;;4406266;32;20239;-59
2021/08/04 06:05:32;;;;;;;6.43;5.33;;;16.80;99.90;;;;;;4398238;32;20289;-59
2021/08/04 06:08:00;;;;;;;6.37;5.50;;;16.80;99.90;;;;;;4399396;32;20204;-59
2021/08/04 06:10:30;;;;;;;6.57;5.53;;;16.70;99.90;;;;;;4395772;32;22086;-59
2021/08/04 06:13:09;;;;;;;6.00;5.33;;;16.60;99.90;;;;;;4397709;32;20523;-59
2021/08/04 06:15:42;;;;;;;5.93;5.33;;;16.60;99.90;;;;;;4396448;32;20170;-60
2021/08/04 06:18:15;;;;;;;7.90;5.93;;;16.50;99.90;;;;;;4400377;32;20257;-60
2021/08/04 06:20:41;;;;;;;7.73;6.50;;;16.40;99.90;;;;;;4402759;32;20151;-60
2021/08/04 06:23:08;;;;;;;6.47;5.87;;;16.20;99.90;;;;;;4414801;32;20219;-60
2021/08/04 06:25:35;;;;;;;10.17;5.83;;;16.00;99.90;;;;;;4408437;32;20162;-59
2021/08/04 06:28:03;;;;;;;6.50;5.40;;;16.00;99.90;;;;;;4408484;32;20190;-62
2021/08/04 06:30:30;;;;;;;7.47;6.57;;;15.90;99.90;;;;;;4406458;32;20633;-63
2021/08/04 06:32:57;;;;;;;7.40;5.93;;;15.80;99.90;;;;;;4406582;32;20199;-60
2021/08/04 06:35:24;;;;;;;8.30;6.10;;;15.70;99.90;;;;;;4406805;32;20171;-61
2021/08/04 06:37:52;;;;;;;9.60;6.00;;;15.80;99.90;;;;;;4408009;32;20482;-60
2021/08/04 06:40:19;;;;;;;7.27;5.50;;;15.90;99.90;;;;;;4407660;32;20169;-60
2021/08/04 06:42:45;;;;;;;7.10;5.93;;;15.90;99.90;;;;;;4406732;32;20203;-60
2021/08/04 06:45:14;;;;;;;7.50;6.50;;;16.00;99.90;;;;;;4407622;32;20175;-62
2021/08/04 06:47:41;;;;;;;12.23;7.07;;;16.20;99.90;;;;;;4408471;32;20167;-61
2021/08/04 06:50:08;;;;;;;6.30;5.67;;;16.30;99.90;;;;;;4406793;32;20178;-59
2021/08/04 06:52:35;;;;;;;7.43;6.27;;;16.50;99.90;;;;;;4406820;32;20148;-59
2021/08/04 06:55:02;;;;;;;6.93;5.90;;;16.60;99.90;;;;;;4406709;32;20190;-61
2021/08/04 06:57:29;;;;;;;7.67;6.87;;;16.70;99.90;;;;;;4407444;32;20148;-62
2021/08/04 06:59:56;;;;;;;6.57;5.37;;;16.80;99.90;;;;;;4407544;32;20147;-62
2021/08/04 07:02:24;;;;;;;7.93;6.00;;;17.00;99.90;;;;;;4406750;32;20194;-60
2021/08/04 07:04:51;;;;;;;7.50;6.30;;;17.20;99.90;;;;;;4406412;32;20170;-61
2021/08/04 07:07:17;;;;;;;7.00;6.23;;;17.40;99.90;;;;;;4406637;32;20147;-60
2021/08/04 07:09:45;;;;;;;8.10;6.17;;;17.50;99.90;;;;;;4406427;32;20171;-61
2021/08/04 07:12:11;;;;;;;8.57;6.93;;;17.60;99.90;;;;;;4407051;32;20175;-60
2021/08/04 07:14:39;;;;;;;7.20;6.23;;;17.80;99.90;;;;;;4407593;32;20564;-62
2021/08/04 07:17:08;;;;;;;8.37;6.17;;;17.90;99.90;;;;;;4406233;32;20163;-61
2021/08/04 07:19:36;;;;;;;6.03;5.43;;;18.20;99.90;;;;;;4406026;32;20164;-60
2021/08/04 07:22:04;;;;;;;7.90;5.77;;;18.40;99.90;;;;;;4406282;32;20209;-61
2021/08/04 07:24:31;;;;;;;7.13;5.40;;;18.40;99.90;;;;;;4405933;32;20568;-60
2021/08/04 07:26:59;;;;;;;7.73;5.97;;;18.60;99.90;;;;;;4407231;32;20161;-60
2021/08/04 07:29:26;;;;;;;7.60;5.90;;;18.60;99.90;;;;;;4405550;32;20206;-60
2021/08/04 07:31:53;;;;;;;7.70;6.00;;;18.70;99.90;;;;;;4407902;32;20199;-61
2021/08/04 07:34:24;;;;;;;7.33;5.43;;;18.70;99.90;;;;;;4406172;32;20156;-61
2021/08/04 07:36:53;;;;;;;8.27;6.23;;;18.70;99.90;;;;;;4405924;32;20232;-61
2021/08/04 07:39:20;;;;;;;9.80;6.77;;;18.80;99.90;;;;;;4406394;32;20182;-60
2021/08/04 07:41:47;;;;;;;11.40;5.80;;;18.90;99.90;;;;;;4405821;32;20559;-61
2021/08/04 07:44:14;;;;;;;5.57;5.00;;;19.00;99.90;;;;;;4406603;32;20156;-61
2021/08/04 07:46:41;;;;;;;5.77;5.07;;;20.00;99.90;;;;;;4405766;32;20189;-61
2021/08/04 07:49:08;;;;;;;8.13;5.70;;;20.60;99.90;;;;;;4405502;32;20152;-61
2021/08/04 07:51:34;;;;;;;7.80;6.43;;;20.90;99.90;;;;;;4405635;32;20187;-60
2021/08/04 07:54:03;;;;;;;6.37;5.63;;;21.20;99.90;;;;;;4405214;32;20210;-62
2021/08/04 07:56:29;;;;;;;6.03;5.10;;;22.10;99.90;;;;;;4406100;32;20203;-64
2021/08/04 07:59:02;;;;;;;8.47;6.20;;;24.00;99.90;;;;;;4409530;32;20156;-62
2021/08/04 08:01:29;;;;;;;6.37;5.10;;;24.60;99.90;;;;;;4409671;32;20539;-61
2021/08/04 08:03:56;;;;;;;7.05;4.95;;;25.20;99.90;;;;;;4406089;32;20190;-61
2021/08/04 08:06:23;;;;;;;4.95;4.22;;;28.50;96.80;;;;;;4405620;32;20254;-62
2021/08/04 08:08:49;;;;;;;4.50;4.10;;;34.50;86.20;;;;;;4414470;32;20510;-61
2021/08/04 08:11:18;;;;;;;4.20;3.80;;;39.10;64.10;;;;;;4405705;32;20156;-63
2021/08/04 08:13:44;;;;;;;4.87;3.53;;;42.40;53.60;;;;;;4405388;32;20184;-63
2021/08/04 08:16:11;;;;;;;3.58;3.05;;;45.10;46.40;;;;;;4406115;32;20166;-62
2021/08/04 08:18:38;;;;;;;3.50;3.20;;;46.80;42.20;;;;;;4405924;32;20156;-62
2021/08/04 08:21:05;;;;;;;3.17;2.78;;;48.10;39.40;;;;;;4405185;32;20203;-61
2021/08/04 08:23:32;;;;;;;3.08;2.70;;;48.90;37.90;;;;;;4405417;32;20179;-62
2021/08/04 08:25:59;;;;;;;3.80;3.20;;;49.60;35.90;;;;;;4405465;32;20143;-61
2021/08/04 08:28:27;;;;;;;5.53;3.00;;;49.50;35.90;;;;;;4405316;32;20171;-61
2021/08/04 08:30:54;;;;;;;3.60;2.80;;;49.60;35.00;;;;;;4405347;32;20510;-62
2021/08/04 08:33:21;;;;;;;3.30;2.62;;;50.10;33.70;;;;;;4405311;32;20186;-60
2021/08/04 08:35:47;;;;;;;3.90;2.60;;;50.20;33.10;;;;;;4405217;32;20203;-59
2021/08/04 08:38:14;;;;;;;2.92;2.28;;;50.80;33.50;;;;;;4405979;32;20480;-61
2021/08/04 08:40:41;;;;;;;2.62;2.17;;;50.90;33.60;;;;;;4405343;32;20221;-62
2021/08/04 08:43:09;;;;;;;2.28;2.08;;;51.00;33.20;;;;;;4405891;32;20163;-60
2021/08/04 08:45:37;;;;;;;4.20;2.62;;;51.50;32.60;;;;;;4405156;32;20152;-60
2021/08/04 08:48:04;;;;;;;3.00;2.10;;;51.30;32.10;;;;;;4405189;32;20175;-62
2021/08/04 08:50:32;;;;;;;2.72;1.77;;;51.50;32.40;;;;;;4405012;32;20507;-63
2021/08/04 08:52:58;;;;;;;2.30;1.77;;;51.70;31.90;;;;;;4405230;32;20199;-63
2021/08/04 08:55:28;;;;;;;3.72;1.73;;;51.50;31.60;;;;;;4406811;32;20167;-63
2021/08/04 08:57:55;;;;;;;3.15;1.87;;;51.70;30.70;;;;;;4405346;32;20167;-61
2021/08/04 09:00:22;;;;;;;2.28;2.00;;;51.40;29.80;;;;;;4405233;32;20215;-61
2021/08/04 09:02:50;;;;;;;2.80;1.75;;;51.50;31.10;;;;;;4406756;32;20162;-62
2021/08/04 09:05:17;;;;;;;2.00;1.80;;;51.70;30.60;;;;;;4405147;32;20196;-62
2021/08/04 09:07:46;;;;;;;1.95;1.67;;;51.50;30.80;;;;;;4406023;32;20178;-61
2021/08/04 09:10:31;;;;;;;2.20;2.00;;;51.10;30.60;;;;;;4405076;32;20148;-63
2021/08/04 09:12:59;;;;;;;3.55;1.83;;;50.70;30.10;;;;;;4405161;32;20219;-63
2021/08/04 09:15:30;;;;;;;3.25;2.05;;;50.40;30.30;;;;;;4404952;32;20147;-62
2021/08/04 09:18:04;;;;;;;4.62;2.67;;;50.70;30.40;;;;;;4405107;32;20172;-63
2021/08/04 09:20:42;;;;;;;2.60;2.25;;;50.10;30.20;;;;;;4405139;32;20144;-63
2021/08/04 09:23:12;;;;;;;2.28;2.08;;;49.60;31.20;;;;;;4405441;32;20151;-64
2021/08/04 09:25:39;;;;;;;4.43;2.47;;;49.00;31.10;;;;;;4405753;32;20166;-62
2021/08/04 09:28:09;;;;;;;4.97;2.40;;;45.00;31.30;;;;;;4409518;32;20485;-63
2021/08/04 09:30:37;;;;;;;3.45;2.30;;;42.20;34.40;;;;;;4407301;32;20223;-63
2021/08/04 09:33:14;;;;;;;3.58;2.45;;;43.20;34.10;;;;;;4409132;32;20184;-62
2021/08/04 09:35:43;;;;;;;2.37;1.85;;;43.30;32.90;;;;;;4407544;32;20210;-63
2021/08/04 09:38:10;;;;;;;2.50;2.30;;;40.40;35.10;;;;;;4408808;32;20147;-62
2021/08/04 09:40:37;;;;;;;2.08;1.87;;;36.60;38.40;;;;;;4407499;32;20159;-61
2021/08/04 09:43:07;;;;;;;1.85;1.62;;;33.90;41.30;;;;;;4407481;32;20183;-62
2021/08/04 09:45:42;;;;;;;2.70;1.92;;;31.50;44.40;;;;;;4407598;32;20220;-63
2021/08/04 09:48:11;;;;;;;3.37;1.70;;;29.70;46.60;;;;;;4408073;32;20611;-61
2021/08/04 09:50:51;;;;;;;5.12;2.58;;;28.80;49.30;;;;;;4408160;32;20174;-61
2021/08/04 09:53:23;;;;;;;2.20;2.00;;;28.00;50.30;;;;;;4407608;32;20166;-62
2021/08/04 09:56:11;;;;;;;3.47;2.42;;;27.50;51.10;;;;;;4409288;32;20564;-62
2021/08/04 09:58:40;;;;;;;2.33;2.12;;;27.30;50.00;;;;;;4408218;32;20178;-61
2021/08/04 10:01:08;;;;;;;2.47;1.87;;;27.10;52.10;;;;;;4407271;32;20201;-62
2021/08/04 10:03:35;;;;;;;2.35;1.85;;;26.60;54.00;;;;;;4407436;32;20588;-61
2021/08/04 10:06:03;;;;;;;2.55;1.98;;;26.10;54.10;;;;;;4407312;32;20189;-62
2021/08/04 10:08:30;;;;;;;4.90;2.30;;;26.10;55.10;;;;;;4407193;32;20152;-61
2021/08/04 10:10:58;;;;;;;4.28;2.83;;;26.40;56.00;;;;;;4407071;32;20156;-61
2021/08/04 10:13:29;;;;;;;5.78;2.80;;;26.70;56.40;;;;;;4407259;32;20223;-62
2021/08/04 10:15:57;;;;;;;4.72;2.40;;;26.60;54.90;;;;;;4408025;32;20210;-62
2021/08/04 10:18:29;;;;;;;3.08;2.78;;;26.70;55.40;;;;;;4406979;32;20192;-62
2021/08/04 10:21:01;;;;;;;2.47;1.75;;;26.70;54.00;;;;;;4408703;32;20148;-61
2021/08/04 10:23:31;;;;;;;5.07;2.67;;;26.70;56.00;;;;;;4408837;32;20167;-63
2021/08/04 10:25:59;;;;;;;3.20;2.17;;;26.90;55.90;;;;;;4407014;32;20158;-63
2021/08/04 10:28:27;;;;;;;3.03;1.87;;;27.00;56.80;;;;;;4406783;32;20163;-63
2021/08/04 10:30:55;;;;;;;3.72;2.47;;;26.70;57.10;;;;;;4406724;32;20203;-64
2021/08/04 10:33:22;;;;;;;2.83;1.90;;;26.10;57.10;;;;;;4406924;32;20182;-62
2021/08/04 10:35:53;;;;;;;2.62;1.98;;;25.70;58.30;;;;;;4406836;32;20163;-61
2021/08/04 10:38:22;;;;;;;3.40;1.85;;;25.40;57.80;;;;;;4407446;32;20212;-63
2021/08/04 10:41:12;;;;;;;2.67;2.12;;;25.30;58.10;;;;;;4407317;32;20167;-63
2021/08/04 10:43:43;;;;;;;4.12;2.33;;;25.60;58.00;;;;;;4406752;32;20186;-62
2021/08/04 10:46:37;;;;;;;4.37;1.90;;;25.90;55.40;;;;;;4406555;32;20173;-62
2021/08/04 10:49:22;;;;;;;5.25;2.37;;;26.00;56.00;;;;;;4407817;32;20160;-62
2021/08/04 10:52:10;;;;;;;2.60;2.35;;;26.00;56.60;;;;;;4407247;32;20170;-62
2021/08/04 10:54:37;;;;;;;4.70;2.20;;;26.20;56.50;;;;;;4406556;32;20197;-63
2021/08/04 10:57:12;;;;;;;3.87;2.30;;;26.70;56.60;;;;;;4406498;32;20163;-64
2021/08/04 10:59:42;;;;;;;3.75;2.60;;;27.20;54.30;;;;;;4406425;32;20189;-63
2021/08/04 11:02:31;;;;;;;3.22;2.90;;;27.40;53.10;;;;;;4406114;32;20163;-62
2021/08/04 11:04:59;;;;;;;4.28;3.40;;;27.20;54.70;;;;;;4406309;32;20156;-63
2021/08/04 11:07:27;;;;;;;4.93;3.67;;;27.00;54.40;;;;;;4406650;32;20213;-62
2021/08/04 11:10:15;;;;;;;2.83;2.55;;;26.70;56.50;;;;;;4408006;32;20595;-63
2021/08/04 11:12:47;;;;;;;3.08;2.53;;;26.10;58.00;;;;;;4406033;32;20163;-62
2021/08/04 11:15:29;;;;;;;4.82;2.30;;;25.70;58.00;;;;;;4407481;32;20170;-61
2021/08/04 11:18:02;;;;;;;4.07;3.08;;;25.50;59.80;;;;;;4407884;32;20528;-62
2021/08/04 11:20:29;;;;;;;4.18;2.62;;;25.50;60.90;;;;;;4406627;32;20205;-62
2021/08/04 11:22:57;;;;;;;6.68;3.90;;;25.70;58.90;;;;;;4406105;32;20147;-63
2021/08/04 11:25:43;;;;;;;2.83;2.55;;;25.40;58.00;;;;;;4406614;32;20214;-64
2021/08/04 11:28:21;;;;;;;3.67;2.45;;;25.80;60.20;;;;;;4362729;32;1764189;-62
2021/08/04 11:30:54;;;;;;;3.60;2.80;;;26.00;60.50;;;;;;4421349;32;20131;-63
2021/08/04 11:33:32;;;;;;;4.62;3.42;;;25.80;59.70;;;;;;4422673;32;20187;-62
2021/08/04 11:36:23;;;;;;;3.42;2.47;;;25.40;57.70;;;;;;4420841;32;20527;-62
2021/08/04 11:39:02;;;;;;;4.35;2.50;;;25.00;60.10;;;;;;4420994;32;20496;-62
2021/08/04 11:41:32;;;;;;;5.60;2.58;;;24.80;61.30;;;;;;4421055;32;20552;-62
2021/08/04 11:44:15;;;;;;;3.62;2.42;;;24.80;60.20;;;;;;4421047;32;20147;-62
2021/08/04 11:46:45;;;;;;;5.12;2.40;;;24.50;61.60;;;;;;4421128;32;20159;-62
2021/08/04 11:49:15;;;;;;;4.47;2.12;;;24.40;64.00;;;;;;4420494;32;20147;-62
2021/08/04 11:51:44;;;;;;;3.85;2.58;;;24.30;66.00;;;;;;4421019;32;20147;-63
2021/08/04 11:54:12;;;;;;;5.90;3.85;;;24.30;65.90;;;;;;4420722;32;20233;-62
2021/08/04 11:56:45;;;;;;;7.00;3.75;;;24.30;65.20;;;;;;4421239;32;20225;-63
2021/08/04 11:59:15;;;;;;;4.90;3.42;;;24.00;65.00;;;;;;4421794;32;20140;-62
2021/08/04 12:01:58;;;;;;;4.32;2.95;;;23.90;65.80;;;;;;4420734;32;20196;-62
2021/08/04 12:04:25;;;;;;;4.10;2.97;;;23.60;65.90;;;;;;4420974;32;20195;-62
2021/08/04 12:07:05;;;;;;;5.47;3.15;;;23.70;67.70;;;;;;4420624;32;20211;-64
2021/08/04 12:09:34;;;;;;;7.00;3.42;;;24.00;67.60;;;;;;4421915;32;20493;-62
2021/08/04 12:12:02;;;;;;;4.45;2.70;;;24.40;67.50;;;;;;4420831;32;20140;-63
2021/08/04 12:14:32;;;;;;;4.80;3.83;;;24.60;67.80;;;;;;4421381;32;20136;-62
2021/08/04 12:17:01;;;;;;;3.62;3.28;;;24.50;67.20;;;;;;4420461;32;20178;-63
2021/08/04 12:19:34;;;;;;;4.15;3.10;;;24.40;68.60;;;;;;4407419;32;20216;-62
2021/08/04 12:22:24;;;;;;;4.37;3.33;;;24.30;70.80;;;;;;4397974;32;20211;-62
2021/08/04 12:25:09;;;;;;;4.90;3.28;;;24.10;69.80;;;;;;4394947;32;20298;-63
2021/08/04 12:27:43;;;;;;;5.20;3.47;;;23.70;70.20;;;;;;4400439;32;20249;-62
2021/08/04 12:30:14;;;;;;;4.78;3.80;;;23.40;69.90;;;;;;4395659;32;20236;-64
2021/08/04 12:33:13;;;;;;;6.18;3.40;;;23.20;72.40;;;;;;4401067;32;20298;-63
2021/08/04 12:35:50;;;;;;;3.67;3.37;;;23.10;73.80;;;;;;4397510;32;20163;-63
2021/08/04 12:38:21;;;;;;;5.32;3.95;;;22.90;74.40;;;;;;4393613;32;20222;-63
2021/08/04 12:40:49;;;;;;;4.82;3.40;;;22.90;74.50;;;;;;4414480;32;20476;-63
2021/08/04 12:43:22;;;;;;;5.07;3.62;;;22.70;75.00;;;;;;4406342;32;20175;-63
2021/08/04 12:45:51;;;;;;;5.15;3.47;;;22.50;76.10;;;;;;4406046;32;20160;-63
2021/08/04 12:48:21;;;;;;;5.37;3.77;;;22.50;78.00;;;;;;4405436;32;20218;-64
2021/08/04 12:50:58;;;;;;;4.27;3.40;;;22.20;78.60;;;;;;4405521;32;20139;-63
2021/08/04 12:53:27;;;;;;;6.63;4.07;;;22.00;80.40;;;;;;4405714;32;20154;-63
2021/08/04 12:56:02;;;;;;;5.73;3.47;;;22.00;83.90;;;;;;4405131;32;20163;-63
2021/08/04 12:58:29;;;;;;;4.20;3.80;;;22.00;86.60;;;;;;4405112;32;20166;-63